sensor_id;sensor_type;location;lat;lon;timestamp;pressure;altitude;pressure_sealevel;temperature;humidity
20930;BME280;21895;47.072;15.132;2023-04-07T00:02:04;96645.00;;;1.58;54.51
20930;BME280;21895;47.072;15.132;2023-04-07T00:04:31;96642.00;;;1.80;54.24
20930;BME280;21895;47.072;15.132;2023-04-07T00:06:57;96641.00;;;1.71;54.17
20930;BME280;21895;47.072;15.132;2023-04-07T00:09:24;96637.00;;;1.64;55.14
20930;BME280;21895;47.072;15.132;2023-04-07T00:11:50;96644.00;;;1.69;55.27
20930;BME280;21895;47.072;15.132;2023-04-07T00:14:17;96645.00;;;1.54;55.31
20930;BME280;21895;47.072;15.132;2023-04-07T00:16:44;96636.00;;;1.41;55.91
20930;BME280;21895;47.072;15.132;2023-04-07T00:19:10;96636.00;;;1.36;56.44
20930;BME280;21895;47.072;15.132;2023-04-07T00:21:37;96640.00;;;1.43;55.50
20930;BME280;21895;47.072;15.132;2023-04-07T00:24:03;96640.00;;;1.24;55.59
20930;BME280;21895;47.072;15.132;2023-04-07T00:26:30;96643.00;;;1.14;56.41
20930;BME280;21895;47.072;15.132;2023-04-07T00:28:58;96628.00;;;1.19;56.35
20930;BME280;21895;47.072;15.132;2023-04-07T00:31:25;96641.00;;;0.97;56.29
20930;BME280;21895;47.072;15.132;2023-04-07T00:33:52;96643.00;;;0.75;57.50
20930;BME280;21895;47.072;15.132;2023-04-07T00:36:19;96641.00;;;0.78;57.66
20930;BME280;21895;47.072;15.132;2023-04-07T00:38:45;96646.00;;;0.76;57.99
20930;BME280;21895;47.072;15.132;2023-04-07T00:41:12;96640.00;;;0.74;58.55
20930;BME280;21895;47.072;15.132;2023-04-07T00:43:38;96649.00;;;0.73;58.63
20930;BME280;21895;47.072;15.132;2023-04-07T00:46:05;96636.00;;;0.84;58.12
20930;BME280;21895;47.072;15.132;2023-04-07T00:48:32;96638.00;;;0.67;58.10
20930;BME280;21895;47.072;15.132;2023-04-07T00:50:58;96631.00;;;0.65;57.82
20930;BME280;21895;47.072;15.132;2023-04-07T00:53:25;96627.00;;;0.61;58.45
20930;BME280;21895;47.072;15.132;2023-04-07T00:55:51;96634.00;;;0.45;59.31
20930;BME280;21895;47.072;15.132;2023-04-07T00:58:21;96632.00;;;0.50;58.85
20930;BME280;21895;47.072;15.132;2023-04-07T01:03:17;96625.00;;;0.82;58.30
20930;BME280;21895;47.072;15.132;2023-04-07T01:06:01;96618.00;;;0.81;58.71
20930;BME280;21895;47.072;15.132;2023-04-07T01:09:29;96625.00;;;0.69;59.24
20930;BME280;21895;47.072;15.132;2023-04-07T01:17:28;96622.00;;;0.82;58.27
20930;BME280;21895;47.072;15.132;2023-04-07T01:20:02;96615.00;;;0.77;59.33
20930;BME280;21895;47.072;15.132;2023-04-07T01:22:55;96621.00;;;0.94;58.77
20930;BME280;21895;47.072;15.132;2023-04-07T01:26:38;96606.00;;;0.86;58.40
20930;BME280;21895;47.072;15.132;2023-04-07T01:29:46;96609.00;;;0.91;58.46
20930;BME280;21895;47.072;15.132;2023-04-07T01:32:17;96603.00;;;1.18;57.93
20930;BME280;21895;47.072;15.132;2023-04-07T01:34:48;96612.00;;;1.23;57.65
20930;BME280;21895;47.072;15.132;2023-04-07T01:37:17;96612.00;;;1.39;57.50
20930;BME280;21895;47.072;15.132;2023-04-07T01:39:44;96614.00;;;1.30;57.52
20930;BME280;21895;47.072;15.132;2023-04-07T01:42:12;96603.00;;;1.24;58.35
20930;BME280;21895;47.072;15.132;2023-04-07T01:44:40;96599.00;;;1.17;58.45
20930;BME280;21895;47.072;15.132;2023-04-07T01:47:09;96606.00;;;0.99;58.46
20930;BME280;21895;47.072;15.132;2023-04-07T01:49:37;96587.00;;;1.24;57.97
20930;BME280;21895;47.072;15.132;2023-04-07T01:52:04;96605.00;;;1.08;58.49
20930;BME280;21895;47.072;15.132;2023-04-07T01:54:32;96592.00;;;1.12;58.64
20930;BME280;21895;47.072;15.132;2023-04-07T01:56:59;96601.00;;;1.14;58.18
20930;BME280;21895;47.072;15.132;2023-04-07T01:59:27;96596.00;;;1.23;57.94
20930;BME280;21895;47.072;15.132;2023-04-07T02:01:53;96579.00;;;1.37;58.04
20930;BME280;21895;47.072;15.132;2023-04-07T02:04:48;96600.00;;;1.38;57.67
20930;BME280;21895;47.072;15.132;2023-04-07T02:07:26;96584.00;;;1.26;58.22
20930;BME280;21895;47.072;15.132;2023-04-07T02:09:59;96592.00;;;1.43;57.77
20930;BME280;21895;47.072;15.132;2023-04-07T02:12:30;96582.00;;;1.55;57.05
20930;BME280;21895;47.072;15.132;2023-04-07T02:15:00;96588.00;;;1.40;57.28
20930;BME280;21895;47.072;15.132;2023-04-07T02:17:28;96570.00;;;1.39;57.80
20930;BME280;21895;47.072;15.132;2023-04-07T02:19:56;96580.00;;;1.39;57.77
20930;BME280;21895;47.072;15.132;2023-04-07T02:22:25;96569.00;;;1.52;57.40
20930;BME280;21895;47.072;15.132;2023-04-07T02:24:52;96561.00;;;1.51;58.04
20930;BME280;21895;47.072;15.132;2023-04-07T02:27:18;96577.00;;;1.56;57.70
20930;BME280;21895;47.072;15.132;2023-04-07T02:29:45;96567.00;;;1.60;57.59
20930;BME280;21895;47.072;15.132;2023-04-07T02:32:12;96573.00;;;1.52;58.06
20930;BME280;21895;47.072;15.132;2023-04-07T02:34:39;96569.00;;;1.62;57.94
20930;BME280;21895;47.072;15.132;2023-04-07T02:37:07;96571.00;;;1.56;58.23
20930;BME280;21895;47.072;15.132;2023-04-07T02:39:33;96565.00;;;1.54;58.09
20930;BME280;21895;47.072;15.132;2023-04-07T02:42:00;96566.00;;;1.53;58.10
20930;BME280;21895;47.072;15.132;2023-04-07T02:44:26;96572.00;;;1.37;58.04
20930;BME280;21895;47.072;15.132;2023-04-07T02:46:53;96560.00;;;1.21;58.05
20930;BME280;21895;47.072;15.132;2023-04-07T02:49:19;96566.00;;;1.43;57.47
20930;BME280;21895;47.072;15.132;2023-04-07T02:51:46;96558.00;;;1.36;58.18
20930;BME280;21895;47.072;15.132;2023-04-07T02:54:12;96555.00;;;1.51;57.75
20930;BME280;21895;47.072;15.132;2023-04-07T02:56:39;96557.00;;;1.62;57.61
20930;BME280;21895;47.072;15.132;2023-04-07T02:59:05;96546.00;;;1.62;56.95
20930;BME280;21895;47.072;15.132;2023-04-07T03:01:32;96557.00;;;1.62;57.38
20930;BME280;21895;47.072;15.132;2023-04-07T03:04:00;96556.00;;;1.56;57.30
20930;BME280;21895;47.072;15.132;2023-04-07T03:06:26;96556.00;;;1.66;57.19
20930;BME280;21895;47.072;15.132;2023-04-07T03:08:53;96560.00;;;1.74;56.68
20930;BME280;21895;47.072;15.132;2023-04-07T03:11:19;96549.00;;;1.70;57.39
20930;BME280;21895;47.072;15.132;2023-04-07T03:13:46;96555.00;;;1.56;57.65
20930;BME280;21895;47.072;15.132;2023-04-07T03:16:12;96548.00;;;1.58;58.34
20930;BME280;21895;47.072;15.132;2023-04-07T03:18:39;96549.00;;;1.68;57.38
20930;BME280;21895;47.072;15.132;2023-04-07T03:21:05;96544.00;;;1.51;57.95
20930;BME280;21895;47.072;15.132;2023-04-07T03:23:32;96540.00;;;1.52;58.35
20930;BME280;21895;47.072;15.132;2023-04-07T03:25:59;96547.00;;;1.53;58.40
20930;BME280;21895;47.072;15.132;2023-04-07T03:28:25;96538.00;;;1.36;58.82
20930;BME280;21895;47.072;15.132;2023-04-07T03:30:52;96538.00;;;1.36;58.91
20930;BME280;21895;47.072;15.132;2023-04-07T03:33:18;96540.00;;;1.51;58.40
20930;BME280;21895;47.072;15.132;2023-04-07T03:35:45;96538.00;;;1.60;57.19
20930;BME280;21895;47.072;15.132;2023-04-07T03:38:12;96534.00;;;1.46;58.02
20930;BME280;21895;47.072;15.132;2023-04-07T03:40:38;96541.00;;;1.36;58.14
20930;BME280;21895;47.072;15.132;2023-04-07T03:43:07;96545.00;;;1.40;58.01
20930;BME280;21895;47.072;15.132;2023-04-07T03:45:37;96530.00;;;1.29;58.30
20930;BME280;21895;47.072;15.132;2023-04-07T03:48:04;96529.00;;;1.13;58.79
20930;BME280;21895;47.072;15.132;2023-04-07T03:50:31;96527.00;;;1.11;58.80
20930;BME280;21895;47.072;15.132;2023-04-07T03:52:57;96531.00;;;0.98;59.63
20930;BME280;21895;47.072;15.132;2023-04-07T03:55:24;96531.00;;;0.91;59.39
20930;BME280;21895;47.072;15.132;2023-04-07T03:57:51;96538.00;;;0.91;59.84
20930;BME280;21895;47.072;15.132;2023-04-07T04:00:17;96535.00;;;0.86;59.87
20930;BME280;21895;47.072;15.132;2023-04-07T04:02:44;96539.00;;;1.02;59.76
20930;BME280;21895;47.072;15.132;2023-04-07T04:05:10;96532.00;;;1.15;59.68
20930;BME280;21895;47.072;15.132;2023-04-07T04:07:37;96533.00;;;0.88;59.74
20930;BME280;21895;47.072;15.132;2023-04-07T04:10:04;96530.00;;;0.62;60.61
20930;BME280;21895;47.072;15.132;2023-04-07T04:12:33;96532.00;;;0.58;60.80
20930;BME280;21895;47.072;15.132;2023-04-07T04:14:59;96534.00;;;0.58;61.02
20930;BME280;21895;47.072;15.132;2023-04-07T04:17:26;96527.00;;;0.64;60.94
20930;BME280;21895;47.072;15.132;2023-04-07T04:19:52;96533.00;;;0.32;61.30
20930;BME280;21895;47.072;15.132;2023-04-07T04:22:20;96524.00;;;0.33;61.49
20930;BME280;21895;47.072;15.132;2023-04-07T04:24:46;96534.00;;;0.39;61.67
20930;BME280;21895;47.072;15.132;2023-04-07T04:27:13;96543.00;;;0.44;61.75
20930;BME280;21895;47.072;15.132;2023-04-07T04:29:39;96526.00;;;0.41;61.63
20930;BME280;21895;47.072;15.132;2023-04-07T04:32:06;96537.00;;;0.36;61.11
20930;BME280;21895;47.072;15.132;2023-04-07T04:34:32;96526.00;;;0.23;61.10
20930;BME280;21895;47.072;15.132;2023-04-07T04:36:59;96536.00;;;0.10;62.10
20930;BME280;21895;47.072;15.132;2023-04-07T04:39:26;96522.00;;;0.19;62.78
20930;BME280;21895;47.072;15.132;2023-04-07T04:41:52;96532.00;;;0.36;62.42
20930;BME280;21895;47.072;15.132;2023-04-07T04:44:19;96541.00;;;0.39;62.34
20930;BME280;21895;47.072;15.132;2023-04-07T04:46:45;96531.00;;;0.31;61.88
20930;BME280;21895;47.072;15.132;2023-04-07T04:49:12;96538.00;;;0.26;62.20
20930;BME280;21895;47.072;15.132;2023-04-07T04:51:39;96538.00;;;0.37;62.08
20930;BME280;21895;47.072;15.132;2023-04-07T04:54:06;96537.00;;;0.30;62.05
20930;BME280;21895;47.072;15.132;2023-04-07T04:56:33;96540.00;;;0.45;62.77
20930;BME280;21895;47.072;15.132;2023-04-07T04:58:59;96549.00;;;0.60;62.10
20930;BME280;21895;47.072;15.132;2023-04-07T05:01:26;96546.00;;;0.69;61.87
20930;BME280;21895;47.072;15.132;2023-04-07T05:03:52;96552.00;;;0.57;62.44
20930;BME280;21895;47.072;15.132;2023-04-07T05:06:19;96544.00;;;0.54;62.43
20930;BME280;21895;47.072;15.132;2023-04-07T05:08:46;96547.00;;;0.59;62.58
20930;BME280;21895;47.072;15.132;2023-04-07T05:11:13;96547.00;;;0.67;62.26
20930;BME280;21895;47.072;15.132;2023-04-07T05:13:39;96551.00;;;0.85;62.19
20930;BME280;21895;47.072;15.132;2023-04-07T05:16:06;96543.00;;;0.86;62.72
20930;BME280;21895;47.072;15.132;2023-04-07T05:18:33;96560.00;;;1.00;61.60
20930;BME280;21895;47.072;15.132;2023-04-07T05:20:59;96555.00;;;1.00;61.71
20930;BME280;21895;47.072;15.132;2023-04-07T05:23:27;96558.00;;;1.05;61.50
20930;BME280;21895;47.072;15.132;2023-04-07T05:25:53;96557.00;;;1.18;61.60
20930;BME280;21895;47.072;15.132;2023-04-07T05:28:20;96562.00;;;1.40;61.04
20930;BME280;21895;47.072;15.132;2023-04-07T05:30:47;96554.00;;;1.52;60.70
20930;BME280;21895;47.072;15.132;2023-04-07T05:33:13;96559.00;;;1.39;60.75
20930;BME280;21895;47.072;15.132;2023-04-07T05:35:40;96560.00;;;1.41;61.08
20930;BME280;21895;47.072;15.132;2023-04-07T05:38:07;96557.00;;;1.32;61.32
20930;BME280;21895;47.072;15.132;2023-04-07T05:40:33;96556.00;;;1.50;60.96
20930;BME280;21895;47.072;15.132;2023-04-07T05:43:03;96557.00;;;1.42;61.53
20930;BME280;21895;47.072;15.132;2023-04-07T05:45:29;96559.00;;;1.50;61.59
20930;BME280;21895;47.072;15.132;2023-04-07T05:47:56;96563.00;;;1.56;61.68
20930;BME280;21895;47.072;15.132;2023-04-07T05:50:22;96558.00;;;1.69;61.05
20930;BME280;21895;47.072;15.132;2023-04-07T05:52:49;96561.00;;;1.89;60.65
20930;BME280;21895;47.072;15.132;2023-04-07T05:55:16;96565.00;;;2.03;60.05
20930;BME280;21895;47.072;15.132;2023-04-07T05:57:42;96564.00;;;2.45;59.61
20930;BME280;21895;47.072;15.132;2023-04-07T06:00:10;96564.00;;;2.78;58.74
20930;BME280;21895;47.072;15.132;2023-04-07T06:02:36;96553.00;;;3.11;58.11
20930;BME280;21895;47.072;15.132;2023-04-07T06:05:06;96552.00;;;3.56;57.39
20930;BME280;21895;47.072;15.132;2023-04-07T06:07:32;96540.00;;;3.90;55.78
20930;BME280;21895;47.072;15.132;2023-04-07T06:09:59;96550.00;;;4.09;56.33
20930;BME280;21895;47.072;15.132;2023-04-07T06:12:26;96545.00;;;4.36;54.14
20930;BME280;21895;47.072;15.132;2023-04-07T06:14:54;96545.00;;;4.68;52.03
20930;BME280;21895;47.072;15.132;2023-04-07T06:17:22;96552.00;;;4.69;52.30
20930;BME280;21895;47.072;15.132;2023-04-07T06:19:49;96547.00;;;4.47;51.35
20930;BME280;21895;47.072;15.132;2023-04-07T06:22:15;96546.00;;;4.35;52.68
20930;BME280;21895;47.072;15.132;2023-04-07T06:24:42;96548.00;;;4.31;53.58
20930;BME280;21895;47.072;15.132;2023-04-07T06:27:08;96547.00;;;4.35;54.04
20930;BME280;21895;47.072;15.132;2023-04-07T06:29:35;96545.00;;;4.36;53.82
20930;BME280;21895;47.072;15.132;2023-04-07T06:32:01;96541.00;;;4.39;52.98
20930;BME280;21895;47.072;15.132;2023-04-07T06:34:28;96555.00;;;4.52;53.47
20930;BME280;21895;47.072;15.132;2023-04-07T06:36:54;96549.00;;;4.60;53.48
20930;BME280;21895;47.072;15.132;2023-04-07T06:39:26;96547.00;;;4.74;52.84
20930;BME280;21895;47.072;15.132;2023-04-07T06:41:52;96537.00;;;4.87;50.83
20930;BME280;21895;47.072;15.132;2023-04-07T06:44:19;96542.00;;;4.89;50.52
20930;BME280;21895;47.072;15.132;2023-04-07T06:46:46;96537.00;;;5.04;51.53
20930;BME280;21895;47.072;15.132;2023-04-07T06:49:15;96542.00;;;5.24;51.15
20930;BME280;21895;47.072;15.132;2023-04-07T06:51:41;96538.00;;;5.44;53.21
20930;BME280;21895;47.072;15.132;2023-04-07T06:54:08;96543.00;;;5.65;52.24
20930;BME280;21895;47.072;15.132;2023-04-07T06:56:38;96553.00;;;5.78;51.14
20930;BME280;21895;47.072;15.132;2023-04-07T06:59:05;96543.00;;;5.80;50.72
20930;BME280;21895;47.072;15.132;2023-04-07T07:01:32;96541.00;;;5.96;49.10
20930;BME280;21895;47.072;15.132;2023-04-07T07:03:59;96541.00;;;6.13;48.83
20930;BME280;21895;47.072;15.132;2023-04-07T07:06:27;96539.00;;;6.21;50.41
20930;BME280;21895;47.072;15.132;2023-04-07T07:08:53;96541.00;;;6.34;50.12
20930;BME280;21895;47.072;15.132;2023-04-07T07:11:20;96545.00;;;6.52;48.31
20930;BME280;21895;47.072;15.132;2023-04-07T07:13:46;96538.00;;;6.55;47.30
20930;BME280;21895;47.072;15.132;2023-04-07T07:16:13;96532.00;;;6.93;46.97
20930;BME280;21895;47.072;15.132;2023-04-07T07:18:40;96536.00;;;7.00;46.25
20930;BME280;21895;47.072;15.132;2023-04-07T07:21:07;96537.00;;;7.20;45.30
20930;BME280;21895;47.072;15.132;2023-04-07T07:23:34;96538.00;;;7.42;44.25
20930;BME280;21895;47.072;15.132;2023-04-07T07:26:01;96537.00;;;7.59;44.67
20930;BME280;21895;47.072;15.132;2023-04-07T07:28:28;96539.00;;;7.90;45.18
20930;BME280;21895;47.072;15.132;2023-04-07T07:30:55;96537.00;;;8.11;43.93
20930;BME280;21895;47.072;15.132;2023-04-07T07:33:21;96528.00;;;8.00;44.40
20930;BME280;21895;47.072;15.132;2023-04-07T07:35:48;96537.00;;;8.07;43.63
20930;BME280;21895;47.072;15.132;2023-04-07T07:38:14;96537.00;;;8.16;42.61
20930;BME280;21895;47.072;15.132;2023-04-07T07:40:41;96536.00;;;8.33;43.68
20930;BME280;21895;47.072;15.132;2023-04-07T07:43:07;96542.00;;;8.42;42.61
20930;BME280;21895;47.072;15.132;2023-04-07T07:45:34;96542.00;;;8.63;41.83
20930;BME280;21895;47.072;15.132;2023-04-07T07:48:00;96539.00;;;8.74;43.48
20930;BME280;21895;47.072;15.132;2023-04-07T07:50:27;96535.00;;;9.05;42.51
20930;BME280;21895;47.072;15.132;2023-04-07T07:52:53;96533.00;;;9.30;41.77
20930;BME280;21895;47.072;15.132;2023-04-07T07:55:20;96528.00;;;9.54;40.82
20930;BME280;21895;47.072;15.132;2023-04-07T07:57:46;96539.00;;;9.62;40.74
20930;BME280;21895;47.072;15.132;2023-04-07T08:00:13;96538.00;;;9.69;39.63
20930;BME280;21895;47.072;15.132;2023-04-07T08:02:40;96540.00;;;10.02;39.81
20930;BME280;21895;47.072;15.132;2023-04-07T08:05:07;96529.00;;;10.32;38.45
20930;BME280;21895;47.072;15.132;2023-04-07T08:07:33;96529.00;;;10.70;38.65
20930;BME280;21895;47.072;15.132;2023-04-07T08:10:00;96524.00;;;10.79;38.36
20930;BME280;21895;47.072;15.132;2023-04-07T08:12:27;96525.00;;;11.00;38.97
20930;BME280;21895;47.072;15.132;2023-04-07T08:14:53;96527.00;;;11.09;38.48
20930;BME280;21895;47.072;15.132;2023-04-07T08:17:20;96532.00;;;11.41;37.99
20930;BME280;21895;47.072;15.132;2023-04-07T08:19:46;96535.00;;;11.41;38.23
20930;BME280;21895;47.072;15.132;2023-04-07T08:22:13;96525.00;;;11.72;38.68
20930;BME280;21895;47.072;15.132;2023-04-07T08:24:40;96526.00;;;11.80;37.57
20930;BME280;21895;47.072;15.132;2023-04-07T08:27:06;96529.00;;;12.10;36.53
20930;BME280;21895;47.072;15.132;2023-04-07T08:29:33;96513.00;;;12.38;37.51
20930;BME280;21895;47.072;15.132;2023-04-07T08:31:59;96504.00;;;12.61;35.84
20930;BME280;21895;47.072;15.132;2023-04-07T08:34:26;96508.00;;;12.54;36.45
20930;BME280;21895;47.072;15.132;2023-04-07T08:36:53;96505.00;;;12.55;35.73
20930;BME280;21895;47.072;15.132;2023-04-07T08:39:19;96507.00;;;12.47;36.30
20930;BME280;21895;47.072;15.132;2023-04-07T08:41:47;96505.00;;;12.67;35.88
20930;BME280;21895;47.072;15.132;2023-04-07T08:44:16;96496.00;;;13.12;34.17
20930;BME280;21895;47.072;15.132;2023-04-07T08:46:44;96493.00;;;13.42;33.60
20930;BME280;21895;47.072;15.132;2023-04-07T08:49:11;96485.00;;;13.57;32.86
20930;BME280;21895;47.072;15.132;2023-04-07T08:51:45;96491.00;;;13.86;32.85
20930;BME280;21895;47.072;15.132;2023-04-07T08:54:16;96493.00;;;13.86;32.64
20930;BME280;21895;47.072;15.132;2023-04-07T08:56:47;96494.00;;;13.88;30.64
20930;BME280;21895;47.072;15.132;2023-04-07T08:59:15;96488.00;;;14.03;30.96
20930;BME280;21895;47.072;15.132;2023-04-07T09:01:50;96483.00;;;14.21;29.39
20930;BME280;21895;47.072;15.132;2023-04-07T09:04:18;96479.00;;;14.65;27.82
20930;BME280;21895;47.072;15.132;2023-04-07T09:06:45;96470.00;;;15.12;25.97
20930;BME280;21895;47.072;15.132;2023-04-07T09:09:11;96470.00;;;15.32;26.36
20930;BME280;21895;47.072;15.132;2023-04-07T09:11:40;96473.00;;;15.31;24.88
20930;BME280;21895;47.072;15.132;2023-04-07T09:14:07;96466.00;;;15.35;23.34
20930;BME280;21895;47.072;15.132;2023-04-07T09:16:34;96465.00;;;15.62;22.76
20930;BME280;21895;47.072;15.132;2023-04-07T09:19:01;96467.00;;;15.36;23.13
20930;BME280;21895;47.072;15.132;2023-04-07T09:21:50;96457.00;;;15.04;23.32
20930;BME280;21895;47.072;15.132;2023-04-07T09:24:26;96460.00;;;14.82;23.55
20930;BME280;21895;47.072;15.132;2023-04-07T09:27:18;96463.00;;;14.96;24.59
20930;BME280;21895;47.072;15.132;2023-04-07T09:29:46;96451.00;;;15.31;24.50
20930;BME280;21895;47.072;15.132;2023-04-07T09:32:35;96447.00;;;15.91;23.00
20930;BME280;21895;47.072;15.132;2023-04-07T09:35:07;96452.00;;;15.99;23.38
20930;BME280;21895;47.072;15.132;2023-04-07T09:37:33;96450.00;;;15.90;23.15
20930;BME280;21895;47.072;15.132;2023-04-07T09:40:00;96439.00;;;15.81;22.50
20930;BME280;21895;47.072;15.132;2023-04-07T09:42:27;96451.00;;;15.73;22.83
20930;BME280;21895;47.072;15.132;2023-04-07T09:45:01;96451.00;;;15.68;23.02
20930;BME280;21895;47.072;15.132;2023-04-07T09:47:30;96444.00;;;15.58;23.31
20930;BME280;21895;47.072;15.132;2023-04-07T09:49:57;96441.00;;;15.89;23.52
20930;BME280;21895;47.072;15.132;2023-04-07T09:53:00;96443.00;;;16.09;22.25
20930;BME280;21895;47.072;15.132;2023-04-07T09:55:29;96437.00;;;16.24;22.79
20930;BME280;21895;47.072;15.132;2023-04-07T09:57:56;96433.00;;;16.29;22.54
20930;BME280;21895;47.072;15.132;2023-04-07T10:00:23;96429.00;;;16.36;22.01
20930;BME280;21895;47.072;15.132;2023-04-07T10:02:50;96428.00;;;16.62;22.74
20930;BME280;21895;47.072;15.132;2023-04-07T10:05:18;96437.00;;;16.84;22.21
20930;BME280;21895;47.072;15.132;2023-04-07T10:07:47;96424.00;;;17.06;23.22
20930;BME280;21895;47.072;15.132;2023-04-07T10:10:14;96419.00;;;17.54;21.94
20930;BME280;21895;47.072;15.132;2023-04-07T10:12:42;96415.00;;;17.60;20.99
20930;BME280;21895;47.072;15.132;2023-04-07T10:15:15;96408.00;;;17.80;21.15
20930;BME280;21895;47.072;15.132;2023-04-07T10:17:46;96404.00;;;17.56;21.61
20930;BME280;21895;47.072;15.132;2023-04-07T10:20:18;96410.00;;;17.67;21.32
20930;BME280;21895;47.072;15.132;2023-04-07T10:22:48;96407.00;;;17.35;20.77
20930;BME280;21895;47.072;15.132;2023-04-07T10:25:20;96409.00;;;17.41;20.91
20930;BME280;21895;47.072;15.132;2023-04-07T10:27:59;96406.00;;;17.18;20.98
20930;BME280;21895;47.072;15.132;2023-04-07T10:30:31;96407.00;;;17.20;21.20
20930;BME280;21895;47.072;15.132;2023-04-07T10:32:58;96407.00;;;17.04;21.04
20930;BME280;21895;47.072;15.132;2023-04-07T10:35:25;96403.00;;;16.50;21.17
20930;BME280;21895;47.072;15.132;2023-04-07T10:39:43;96394.00;;;16.36;22.14
20930;BME280;21895;47.072;15.132;2023-04-07T10:43:35;96382.00;;;16.10;22.02
20930;BME280;21895;47.072;15.132;2023-04-07T10:46:02;96384.00;;;15.92;22.48
20930;BME280;21895;47.072;15.132;2023-04-07T10:48:29;96386.00;;;16.12;22.37
20930;BME280;21895;47.072;15.132;2023-04-07T10:51:31;96385.00;;;16.10;22.10
20930;BME280;21895;47.072;15.132;2023-04-07T10:54:22;96381.00;;;16.14;21.76
20930;BME280;21895;47.072;15.132;2023-04-07T10:57:26;96374.00;;;15.79;22.01
20930;BME280;21895;47.072;15.132;2023-04-07T11:00:14;96375.00;;;15.45;22.84
20930;BME280;21895;47.072;15.132;2023-04-07T11:02:41;96372.00;;;15.71;22.06
20930;BME280;21895;47.072;15.132;2023-04-07T11:05:20;96366.00;;;15.84;22.30
20930;BME280;21895;47.072;15.132;2023-04-07T11:07:53;96365.00;;;15.73;22.71
20930;BME280;21895;47.072;15.132;2023-04-07T11:10:24;96363.00;;;15.76;22.18
20930;BME280;21895;47.072;15.132;2023-04-07T11:13:00;96363.00;;;15.96;22.05
20930;BME280;21895;47.072;15.132;2023-04-07T11:15:27;96355.00;;;16.08;21.89
20930;BME280;21895;47.072;15.132;2023-04-07T11:19:52;96349.00;;;15.84;23.26
20930;BME280;21895;47.072;15.132;2023-04-07T11:22:18;96343.00;;;16.16;22.84
20930;BME280;21895;47.072;15.132;2023-04-07T11:24:48;96349.00;;;16.12;22.63
20930;BME280;21895;47.072;15.132;2023-04-07T11:27:15;96346.00;;;16.14;24.02
20930;BME280;21895;47.072;15.132;2023-04-07T11:29:42;96343.00;;;16.24;23.13
20930;BME280;21895;47.072;15.132;2023-04-07T11:32:09;96338.00;;;16.34;23.98
20930;BME280;21895;47.072;15.132;2023-04-07T11:34:38;96349.00;;;16.48;22.34
20930;BME280;21895;47.072;15.132;2023-04-07T11:37:25;96344.00;;;16.72;21.18
20930;BME280;21895;47.072;15.132;2023-04-07T11:39:55;96338.00;;;17.03;21.97
20930;BME280;21895;47.072;15.132;2023-04-07T11:42:36;96334.00;;;17.17;21.84
20930;BME280;21895;47.072;15.132;2023-04-07T11:45:05;96336.00;;;17.36;20.51
20930;BME280;21895;47.072;15.132;2023-04-07T11:47:36;96333.00;;;17.13;21.43
20930;BME280;21895;47.072;15.132;2023-04-07T11:50:03;96334.00;;;17.09;20.65
20930;BME280;21895;47.072;15.132;2023-04-07T11:52:47;96327.00;;;17.13;20.56
20930;BME280;21895;47.072;15.132;2023-04-07T11:55:21;96329.00;;;17.35;21.21
20930;BME280;21895;47.072;15.132;2023-04-07T11:57:50;96323.00;;;17.41;21.31
20930;BME280;21895;47.072;15.132;2023-04-07T12:00:18;96325.00;;;17.85;20.17
20930;BME280;21895;47.072;15.132;2023-04-07T12:02:45;96308.00;;;18.21;21.53
20930;BME280;21895;47.072;15.132;2023-04-07T12:05:12;96310.00;;;18.49;20.12
20930;BME280;21895;47.072;15.132;2023-04-07T12:07:39;96311.00;;;18.62;19.74
20930;BME280;21895;47.072;15.132;2023-04-07T12:10:21;96315.00;;;18.22;20.19
20930;BME280;21895;47.072;15.132;2023-04-07T12:12:48;96312.00;;;17.87;22.04
20930;BME280;21895;47.072;15.132;2023-04-07T12:15:15;96305.00;;;17.71;21.67
20930;BME280;21895;47.072;15.132;2023-04-07T12:17:46;96308.00;;;17.87;20.82
20930;BME280;21895;47.072;15.132;2023-04-07T12:20:14;96299.00;;;17.81;20.60
20930;BME280;21895;47.072;15.132;2023-04-07T12:22:41;96297.00;;;17.61;21.53
20930;BME280;21895;47.072;15.132;2023-04-07T12:25:08;96303.00;;;17.25;20.64
20930;BME280;21895;47.072;15.132;2023-04-07T12:27:34;96299.00;;;17.02;20.98
20930;BME280;21895;47.072;15.132;2023-04-07T12:30:10;96298.00;;;16.74;21.57
20930;BME280;21895;47.072;15.132;2023-04-07T12:32:36;96295.00;;;16.83;20.65
20930;BME280;21895;47.072;15.132;2023-04-07T12:35:04;96284.00;;;17.13;19.52
20930;BME280;21895;47.072;15.132;2023-04-07T12:37:30;96284.00;;;17.23;20.27
20930;BME280;21895;47.072;15.132;2023-04-07T12:39:58;96282.00;;;17.21;20.41
20930;BME280;21895;47.072;15.132;2023-04-07T12:42:25;96269.00;;;17.35;20.43
20930;BME280;21895;47.072;15.132;2023-04-07T12:44:51;96269.00;;;17.29;20.62
20930;BME280;21895;47.072;15.132;2023-04-07T12:47:18;96279.00;;;17.41;20.63
20930;BME280;21895;47.072;15.132;2023-04-07T12:49:44;96279.00;;;17.25;20.72
20930;BME280;21895;47.072;15.132;2023-04-07T12:52:11;96273.00;;;17.11;21.31
20930;BME280;21895;47.072;15.132;2023-04-07T12:54:37;96271.00;;;17.15;21.17
20930;BME280;21895;47.072;15.132;2023-04-07T12:57:04;96271.00;;;17.22;21.01
20930;BME280;21895;47.072;15.132;2023-04-07T12:59:30;96263.00;;;17.27;20.15
20930;BME280;21895;47.072;15.132;2023-04-07T13:01:57;96267.00;;;17.45;20.24
20930;BME280;21895;47.072;15.132;2023-04-07T13:04:24;96261.00;;;17.33;19.78
20930;BME280;21895;47.072;15.132;2023-04-07T13:06:53;96265.00;;;17.40;20.62
20930;BME280;21895;47.072;15.132;2023-04-07T13:09:19;96256.00;;;17.38;19.89
20930;BME280;21895;47.072;15.132;2023-04-07T13:11:46;96254.00;;;17.45;20.56
20930;BME280;21895;47.072;15.132;2023-04-07T13:14:13;96259.00;;;17.41;20.08
20930;BME280;21895;47.072;15.132;2023-04-07T13:16:39;96264.00;;;17.43;20.52
20930;BME280;21895;47.072;15.132;2023-04-07T13:19:06;96259.00;;;17.04;21.00